sensor_id;sensor_type;location;lat;lon;timestamp;P1;durP1;ratioP1;P2;durP2;ratioP2
68449;SDS011;67758;39.572;2.652;2023-04-25T00:02:18;14.82;;;4.55;;
68449;SDS011;67758;39.572;2.652;2023-04-25T00:04:44;11.02;;;4.57;;
68449;SDS011;67758;39.572;2.652;2023-04-25T00:07:10;12.80;;;4.90;;
68449;SDS011;67758;39.572;2.652;2023-04-25T00:09:36;11.35;;;4.25;;
68449;SDS011;67758;39.572;2.652;2023-04-25T00:12:01;11.73;;;4.10;;
68449;SDS011;67758;39.572;2.652;2023-04-25T00:14:27;11.10;;;4.22;;
68449;SDS011;67758;39.572;2.652;2023-04-25T00:16:53;11.27;;;4.20;;
68449;SDS011;67758;39.572;2.652;2023-04-25T00:19:19;11.27;;;4.27;;
68449;SDS011;67758;39.572;2.652;2023-04-25T00:21:45;11.93;;;4.18;;
68449;SDS011;67758;39.572;2.652;2023-04-25T00:24:11;12.97;;;3.60;;
68449;SDS011;67758;39.572;2.652;2023-04-25T00:26:37;12.55;;;3.80;;
68449;SDS011;67758;39.572;2.652;2023-04-25T00:29:03;9.73;;;3.83;;
68449;SDS011;67758;39.572;2.652;2023-04-25T00:31:29;10.97;;;4.13;;
68449;SDS011;67758;39.572;2.652;2023-04-25T00:33:55;11.07;;;3.80;;
68449;SDS011;67758;39.572;2.652;2023-04-25T00:36:20;12.63;;;3.70;;
68449;SDS011;67758;39.572;2.652;2023-04-25T00:38:47;12.63;;;3.80;;
68449;SDS011;67758;39.572;2.652;2023-04-25T00:41:12;9.05;;;4.18;;
68449;SDS011;67758;39.572;2.652;2023-04-25T00:43:38;11.52;;;3.67;;
68449;SDS011;67758;39.572;2.652;2023-04-25T00:46:05;12.23;;;3.88;;
68449;SDS011;67758;39.572;2.652;2023-04-25T00:48:31;8.80;;;2.90;;
68449;SDS011;67758;39.572;2.652;2023-04-25T00:50:57;10.85;;;3.75;;
68449;SDS011;67758;39.572;2.652;2023-04-25T00:53:25;11.30;;;3.47;;
68449;SDS011;67758;39.572;2.652;2023-04-25T00:55:52;10.23;;;3.72;;
68449;SDS011;67758;39.572;2.652;2023-04-25T00:58:20;11.27;;;3.55;;
68449;SDS011;67758;39.572;2.652;2023-04-25T01:00:47;10.63;;;3.30;;
68449;SDS011;67758;39.572;2.652;2023-04-25T01:03:15;8.35;;;3.33;;
68449;SDS011;67758;39.572;2.652;2023-04-25T01:05:42;11.60;;;3.40;;
68449;SDS011;67758;39.572;2.652;2023-04-25T01:08:09;9.30;;;3.97;;
68449;SDS011;67758;39.572;2.652;2023-04-25T01:10:36;9.93;;;4.30;;
68449;SDS011;67758;39.572;2.652;2023-04-25T01:13:06;9.55;;;4.03;;
68449;SDS011;67758;39.572;2.652;2023-04-25T01:15:32;10.82;;;4.53;;
68449;SDS011;67758;39.572;2.652;2023-04-25T01:18:04;11.67;;;3.90;;
68449;SDS011;67758;39.572;2.652;2023-04-25T01:20:31;9.43;;;4.13;;
68449;SDS011;67758;39.572;2.652;2023-04-25T01:22:58;10.98;;;3.67;;
68449;SDS011;67758;39.572;2.652;2023-04-25T01:25:30;9.35;;;3.72;;
68449;SDS011;67758;39.572;2.652;2023-04-25T01:27:58;9.82;;;3.67;;
68449;SDS011;67758;39.572;2.652;2023-04-25T01:30:27;8.83;;;3.70;;
68449;SDS011;67758;39.572;2.652;2023-04-25T01:32:55;9.02;;;3.45;;
68449;SDS011;67758;39.572;2.652;2023-04-25T01:35:22;10.70;;;3.85;;
68449;SDS011;67758;39.572;2.652;2023-04-25T01:37:49;10.63;;;3.70;;
68449;SDS011;67758;39.572;2.652;2023-04-25T01:40:16;8.48;;;3.30;;
68449;SDS011;67758;39.572;2.652;2023-04-25T01:42:44;7.67;;;3.00;;
68449;SDS011;67758;39.572;2.652;2023-04-25T01:45:10;11.27;;;3.58;;
68449;SDS011;67758;39.572;2.652;2023-04-25T01:47:37;11.77;;;4.13;;
68449;SDS011;67758;39.572;2.652;2023-04-25T01:50:05;9.55;;;3.92;;
68449;SDS011;67758;39.572;2.652;2023-04-25T01:52:32;9.55;;;3.10;;
68449;SDS011;67758;39.572;2.652;2023-04-25T01:54:57;10.97;;;3.77;;
68449;SDS011;67758;39.572;2.652;2023-04-25T01:57:26;10.10;;;3.72;;
68449;SDS011;67758;39.572;2.652;2023-04-25T01:59:52;12.70;;;3.60;;
68449;SDS011;67758;39.572;2.652;2023-04-25T02:02:29;11.55;;;3.42;;
68449;SDS011;67758;39.572;2.652;2023-04-25T02:04:55;9.03;;;3.63;;
68449;SDS011;67758;39.572;2.652;2023-04-25T02:07:21;9.90;;;4.38;;
68449;SDS011;67758;39.572;2.652;2023-04-25T02:09:47;13.43;;;4.75;;
68449;SDS011;67758;39.572;2.652;2023-04-25T02:12:12;12.93;;;4.80;;
68449;SDS011;67758;39.572;2.652;2023-04-25T02:14:38;12.38;;;3.70;;
68449;SDS011;67758;39.572;2.652;2023-04-25T02:17:04;9.43;;;3.90;;
68449;SDS011;67758;39.572;2.652;2023-04-25T02:19:30;9.77;;;4.78;;
68449;SDS011;67758;39.572;2.652;2023-04-25T02:21:56;10.95;;;4.20;;
68449;SDS011;67758;39.572;2.652;2023-04-25T02:24:23;11.27;;;4.30;;
68449;SDS011;67758;39.572;2.652;2023-04-25T02:26:49;9.57;;;4.20;;
68449;SDS011;67758;39.572;2.652;2023-04-25T02:29:14;11.65;;;4.57;;
68449;SDS011;67758;39.572;2.652;2023-04-25T02:31:40;12.17;;;4.37;;
68449;SDS011;67758;39.572;2.652;2023-04-25T02:34:06;10.10;;;4.40;;
68449;SDS011;67758;39.572;2.652;2023-04-25T02:36:31;10.33;;;3.77;;
68449;SDS011;67758;39.572;2.652;2023-04-25T02:38:59;13.07;;;3.65;;
68449;SDS011;67758;39.572;2.652;2023-04-25T02:41:26;9.07;;;3.63;;
68449;SDS011;67758;39.572;2.652;2023-04-25T02:43:52;10.40;;;3.50;;
68449;SDS011;67758;39.572;2.652;2023-04-25T02:46:17;11.47;;;3.53;;
68449;SDS011;67758;39.572;2.652;2023-04-25T02:48:43;7.93;;;3.33;;
68449;SDS011;67758;39.572;2.652;2023-04-25T02:51:08;8.83;;;3.43;;
68449;SDS011;67758;39.572;2.652;2023-04-25T02:53:34;8.80;;;3.58;;
68449;SDS011;67758;39.572;2.652;2023-04-25T02:56:00;9.50;;;3.30;;
68449;SDS011;67758;39.572;2.652;2023-04-25T02:58:26;8.10;;;2.75;;
68449;SDS011;67758;39.572;2.652;2023-04-25T03:00:52;8.13;;;3.58;;
68449;SDS011;67758;39.572;2.652;2023-04-25T03:03:18;8.13;;;3.50;;
68449;SDS011;67758;39.572;2.652;2023-04-25T03:05:46;9.02;;;3.10;;
68449;SDS011;67758;39.572;2.652;2023-04-25T03:08:13;10.57;;;3.20;;
68449;SDS011;67758;39.572;2.652;2023-04-25T03:10:39;9.63;;;3.37;;
68449;SDS011;67758;39.572;2.652;2023-04-25T03:13:05;12.35;;;3.63;;
68449;SDS011;67758;39.572;2.652;2023-04-25T03:15:30;8.30;;;3.20;;
68449;SDS011;67758;39.572;2.652;2023-04-25T03:17:56;9.93;;;2.93;;
68449;SDS011;67758;39.572;2.652;2023-04-25T03:20:22;11.30;;;3.50;;
68449;SDS011;67758;39.572;2.652;2023-04-25T03:22:50;11.60;;;4.03;;
68449;SDS011;67758;39.572;2.652;2023-04-25T03:25:15;8.57;;;3.53;;
68449;SDS011;67758;39.572;2.652;2023-04-25T03:27:41;8.50;;;3.43;;
68449;SDS011;67758;39.572;2.652;2023-04-25T03:30:07;11.55;;;3.22;;
68449;SDS011;67758;39.572;2.652;2023-04-25T03:32:33;10.27;;;3.70;;
68449;SDS011;67758;39.572;2.652;2023-04-25T03:34:59;8.77;;;3.53;;
68449;SDS011;67758;39.572;2.652;2023-04-25T03:37:24;9.05;;;3.47;;
68449;SDS011;67758;39.572;2.652;2023-04-25T03:39:50;10.27;;;3.40;;
68449;SDS011;67758;39.572;2.652;2023-04-25T03:42:16;12.67;;;3.60;;
68449;SDS011;67758;39.572;2.652;2023-04-25T03:44:42;12.40;;;5.13;;
68449;SDS011;67758;39.572;2.652;2023-04-25T03:47:08;10.52;;;3.90;;
68449;SDS011;67758;39.572;2.652;2023-04-25T03:49:34;10.30;;;3.77;;
68449;SDS011;67758;39.572;2.652;2023-04-25T03:52:00;10.65;;;3.97;;
68449;SDS011;67758;39.572;2.652;2023-04-25T03:54:26;7.90;;;3.90;;
68449;SDS011;67758;39.572;2.652;2023-04-25T03:56:52;7.87;;;4.10;;
68449;SDS011;67758;39.572;2.652;2023-04-25T03:59:17;10.07;;;4.23;;
68449;SDS011;67758;39.572;2.652;2023-04-25T04:01:43;10.10;;;4.60;;
68449;SDS011;67758;39.572;2.652;2023-04-25T04:04:09;9.33;;;3.60;;
68449;SDS011;67758;39.572;2.652;2023-04-25T04:06:34;11.00;;;4.05;;
68449;SDS011;67758;39.572;2.652;2023-04-25T04:09:01;9.13;;;4.47;;
68449;SDS011;67758;39.572;2.652;2023-04-25T04:11:28;8.80;;;4.03;;
68449;SDS011;67758;39.572;2.652;2023-04-25T04:13:53;8.77;;;4.38;;
68449;SDS011;67758;39.572;2.652;2023-04-25T04:16:19;10.23;;;5.33;;
68449;SDS011;67758;39.572;2.652;2023-04-25T04:18:45;9.43;;;4.60;;
68449;SDS011;67758;39.572;2.652;2023-04-25T04:21:11;13.57;;;6.00;;
68449;SDS011;67758;39.572;2.652;2023-04-25T04:23:36;12.40;;;6.28;;
68449;SDS011;67758;39.572;2.652;2023-04-25T04:26:02;9.97;;;5.20;;
68449;SDS011;67758;39.572;2.652;2023-04-25T04:28:28;9.90;;;5.53;;
68449;SDS011;67758;39.572;2.652;2023-04-25T04:30:54;11.18;;;4.95;;
68449;SDS011;67758;39.572;2.652;2023-04-25T04:33:20;11.60;;;4.40;;
68449;SDS011;67758;39.572;2.652;2023-04-25T04:35:46;11.20;;;4.93;;
68449;SDS011;67758;39.572;2.652;2023-04-25T04:38:12;10.20;;;5.43;;
68449;SDS011;67758;39.572;2.652;2023-04-25T04:40:40;11.77;;;5.47;;
68449;SDS011;67758;39.572;2.652;2023-04-25T04:43:08;11.45;;;5.95;;
68449;SDS011;67758;39.572;2.652;2023-04-25T04:45:36;12.57;;;6.28;;
68449;SDS011;67758;39.572;2.652;2023-04-25T04:48:05;15.18;;;5.90;;
68449;SDS011;67758;39.572;2.652;2023-04-25T04:50:31;11.90;;;5.37;;
68449;SDS011;67758;39.572;2.652;2023-04-25T04:52:57;13.80;;;5.50;;
68449;SDS011;67758;39.572;2.652;2023-04-25T04:55:23;10.98;;;5.75;;
68449;SDS011;67758;39.572;2.652;2023-04-25T04:57:49;11.70;;;5.53;;
68449;SDS011;67758;39.572;2.652;2023-04-25T05:00:15;11.18;;;4.95;;
68449;SDS011;67758;39.572;2.652;2023-04-25T05:02:41;11.80;;;5.50;;
68449;SDS011;67758;39.572;2.652;2023-04-25T05:05:06;13.93;;;5.40;;
68449;SDS011;67758;39.572;2.652;2023-04-25T05:07:33;12.07;;;5.00;;
68449;SDS011;67758;39.572;2.652;2023-04-25T05:13:07;14.15;;;4.88;;
68449;SDS011;67758;39.572;2.652;2023-04-25T05:15:52;10.70;;;4.50;;
68449;SDS011;67758;39.572;2.652;2023-04-25T05:18:20;9.75;;;5.18;;
68449;SDS011;67758;39.572;2.652;2023-04-25T05:20:46;13.47;;;4.80;;
68449;SDS011;67758;39.572;2.652;2023-04-25T05:23:14;13.40;;;5.20;;
68449;SDS011;67758;39.572;2.652;2023-04-25T05:25:40;18.70;;;5.40;;
68449;SDS011;67758;39.572;2.652;2023-04-25T05:28:06;14.50;;;4.97;;
68449;SDS011;67758;39.572;2.652;2023-04-25T05:30:31;11.55;;;4.78;;
68449;SDS011;67758;39.572;2.652;2023-04-25T05:32:57;12.63;;;5.03;;
68449;SDS011;67758;39.572;2.652;2023-04-25T05:35:23;10.57;;;4.50;;
68449;SDS011;67758;39.572;2.652;2023-04-25T05:37:48;11.73;;;5.10;;
68449;SDS011;67758;39.572;2.652;2023-04-25T05:40:14;11.87;;;4.73;;
68449;SDS011;67758;39.572;2.652;2023-04-25T05:42:42;12.30;;;5.07;;
68449;SDS011;67758;39.572;2.652;2023-04-25T05:45:08;13.52;;;5.20;;
68449;SDS011;67758;39.572;2.652;2023-04-25T05:47:33;16.07;;;5.70;;
68449;SDS011;67758;39.572;2.652;2023-04-25T05:49:59;13.77;;;5.40;;
68449;SDS011;67758;39.572;2.652;2023-04-25T05:52:25;14.83;;;5.90;;
68449;SDS011;67758;39.572;2.652;2023-04-25T05:54:50;13.93;;;5.80;;
68449;SDS011;67758;39.572;2.652;2023-04-25T05:57:19;16.50;;;6.53;;
68449;SDS011;67758;39.572;2.652;2023-04-25T05:59:52;10.27;;;5.93;;
68449;SDS011;67758;39.572;2.652;2023-04-25T06:02:18;12.15;;;5.78;;
68449;SDS011;67758;39.572;2.652;2023-04-25T06:04:45;14.33;;;6.50;;
68449;SDS011;67758;39.572;2.652;2023-04-25T06:07:11;14.30;;;6.97;;
68449;SDS011;67758;39.572;2.652;2023-04-25T06:09:38;12.95;;;6.53;;
68449;SDS011;67758;39.572;2.652;2023-04-25T06:12:06;13.15;;;6.60;;
68449;SDS011;67758;39.572;2.652;2023-04-25T06:14:32;13.47;;;5.73;;
68449;SDS011;67758;39.572;2.652;2023-04-25T06:16:59;10.10;;;5.13;;
68449;SDS011;67758;39.572;2.652;2023-04-25T06:19:24;11.93;;;5.57;;
68449;SDS011;67758;39.572;2.652;2023-04-25T06:21:50;12.60;;;6.03;;
68449;SDS011;67758;39.572;2.652;2023-04-25T06:24:16;16.03;;;6.70;;
68449;SDS011;67758;39.572;2.652;2023-04-25T06:26:41;13.23;;;5.33;;
68449;SDS011;67758;39.572;2.652;2023-04-25T06:29:07;14.90;;;5.97;;
68449;SDS011;67758;39.572;2.652;2023-04-25T06:31:32;12.82;;;4.70;;
68449;SDS011;67758;39.572;2.652;2023-04-25T06:33:58;14.60;;;4.70;;
68449;SDS011;67758;39.572;2.652;2023-04-25T06:36:24;11.73;;;5.03;;
68449;SDS011;67758;39.572;2.652;2023-04-25T06:38:51;12.13;;;6.13;;
68449;SDS011;67758;39.572;2.652;2023-04-25T06:41:17;13.63;;;6.40;;
68449;SDS011;67758;39.572;2.652;2023-04-25T06:43:44;10.57;;;4.77;;
68449;SDS011;67758;39.572;2.652;2023-04-25T06:46:09;11.52;;;5.53;;
68449;SDS011;67758;39.572;2.652;2023-04-25T06:48:36;9.75;;;4.97;;
68449;SDS011;67758;39.572;2.652;2023-04-25T06:51:01;13.37;;;5.57;;
68449;SDS011;67758;39.572;2.652;2023-04-25T06:53:27;10.63;;;4.55;;
68449;SDS011;67758;39.572;2.652;2023-04-25T06:55:53;10.57;;;5.23;;
68449;SDS011;67758;39.572;2.652;2023-04-25T06:58:18;11.18;;;4.43;;
68449;SDS011;67758;39.572;2.652;2023-04-25T07:00:44;10.70;;;5.00;;
68449;SDS011;67758;39.572;2.652;2023-04-25T07:03:10;13.43;;;5.30;;
68449;SDS011;67758;39.572;2.652;2023-04-25T07:05:35;9.07;;;4.40;;
68449;SDS011;67758;39.572;2.652;2023-04-25T07:08:01;11.80;;;5.20;;
68449;SDS011;67758;39.572;2.652;2023-04-25T07:10:28;10.63;;;5.37;;
68449;SDS011;67758;39.572;2.652;2023-04-25T07:12:53;14.68;;;4.68;;
68449;SDS011;67758;39.572;2.652;2023-04-25T07:15:19;9.80;;;4.20;;
68449;SDS011;67758;39.572;2.652;2023-04-25T07:17:45;12.18;;;5.00;;
68449;SDS011;67758;39.572;2.652;2023-04-25T07:20:10;11.67;;;4.57;;
68449;SDS011;67758;39.572;2.652;2023-04-25T07:22:36;13.50;;;4.78;;
68449;SDS011;67758;39.572;2.652;2023-04-25T07:25:02;10.00;;;4.17;;
68449;SDS011;67758;39.572;2.652;2023-04-25T07:27:29;13.45;;;4.50;;
68449;SDS011;67758;39.572;2.652;2023-04-25T07:29:55;8.23;;;4.10;;
68449;SDS011;67758;39.572;2.652;2023-04-25T07:32:21;10.90;;;4.07;;
68449;SDS011;67758;39.572;2.652;2023-04-25T07:34:46;11.73;;;4.00;;
68449;SDS011;67758;39.572;2.652;2023-04-25T07:37:12;12.53;;;4.10;;
68449;SDS011;67758;39.572;2.652;2023-04-25T07:39:39;13.48;;;4.50;;
68449;SDS011;67758;39.572;2.652;2023-04-25T07:42:05;11.93;;;4.32;;
68449;SDS011;67758;39.572;2.652;2023-04-25T07:44:33;11.75;;;4.35;;
68449;SDS011;67758;39.572;2.652;2023-04-25T07:47:04;10.37;;;4.13;;
68449;SDS011;67758;39.572;2.652;2023-04-25T07:49:35;9.10;;;3.90;;
68449;SDS011;67758;39.572;2.652;2023-04-25T07:52:02;10.65;;;4.22;;
68449;SDS011;67758;39.572;2.652;2023-04-25T07:54:29;9.15;;;3.97;;
68449;SDS011;67758;39.572;2.652;2023-04-25T07:56:55;9.43;;;4.10;;
68449;SDS011;67758;39.572;2.652;2023-04-25T07:59:21;11.38;;;3.80;;
68449;SDS011;67758;39.572;2.652;2023-04-25T08:01:47;10.60;;;3.92;;
68449;SDS011;67758;39.572;2.652;2023-04-25T08:04:12;10.67;;;4.00;;
68449;SDS011;67758;39.572;2.652;2023-04-25T08:06:38;9.93;;;4.28;;
68449;SDS011;67758;39.572;2.652;2023-04-25T08:09:05;12.23;;;4.15;;
68449;SDS011;67758;39.572;2.652;2023-04-25T08:11:33;9.77;;;3.70;;
68449;SDS011;67758;39.572;2.652;2023-04-25T08:13:59;10.10;;;3.80;;
68449;SDS011;67758;39.572;2.652;2023-04-25T08:16:24;8.57;;;3.38;;
68449;SDS011;67758;39.572;2.652;2023-04-25T08:18:50;11.73;;;3.83;;
68449;SDS011;67758;39.572;2.652;2023-04-25T08:21:16;10.60;;;3.67;;
68449;SDS011;67758;39.572;2.652;2023-04-25T08:23:41;15.67;;;4.20;;
68449;SDS011;67758;39.572;2.652;2023-04-25T08:26:07;8.93;;;3.43;;
68449;SDS011;67758;39.572;2.652;2023-04-25T08:28:33;11.20;;;3.47;;
68449;SDS011;67758;39.572;2.652;2023-04-25T08:30:58;8.37;;;3.90;;
68449;SDS011;67758;39.572;2.652;2023-04-25T08:33:25;13.13;;;4.10;;
68449;SDS011;67758;39.572;2.652;2023-04-25T08:35:51;9.90;;;4.40;;
68449;SDS011;67758;39.572;2.652;2023-04-25T08:38:17;14.45;;;4.45;;
68449;SDS011;67758;39.572;2.652;2023-04-25T08:40:43;14.60;;;3.80;;
68449;SDS011;67758;39.572;2.652;2023-04-25T08:43:09;12.18;;;3.92;;
68449;SDS011;67758;39.572;2.652;2023-04-25T08:45:40;13.95;;;4.53;;
68449;SDS011;67758;39.572;2.652;2023-04-25T08:48:07;12.35;;;4.57;;
68449;SDS011;67758;39.572;2.652;2023-04-25T08:50:45;10.52;;;4.75;;
68449;SDS011;67758;39.572;2.652;2023-04-25T08:53:16;12.10;;;4.27;;
68449;SDS011;67758;39.572;2.652;2023-04-25T08:55:45;11.45;;;3.83;;
68449;SDS011;67758;39.572;2.652;2023-04-25T08:58:12;11.95;;;4.22;;
68449;SDS011;67758;39.572;2.652;2023-04-25T09:00:38;12.75;;;4.30;;
68449;SDS011;67758;39.572;2.652;2023-04-25T09:03:04;11.07;;;5.05;;
68449;SDS011;67758;39.572;2.652;2023-04-25T09:05:31;9.63;;;4.47;;
68449;SDS011;67758;39.572;2.652;2023-04-25T09:07:58;10.48;;;4.18;;
68449;SDS011;67758;39.572;2.652;2023-04-25T09:10:23;14.57;;;4.90;;
68449;SDS011;67758;39.572;2.652;2023-04-25T09:13:05;14.52;;;4.47;;
68449;SDS011;67758;39.572;2.652;2023-04-25T09:15:46;14.52;;;4.82;;
68449;SDS011;67758;39.572;2.652;2023-04-25T09:18:14;15.95;;;4.30;;
68449;SDS011;67758;39.572;2.652;2023-04-25T09:20:51;14.35;;;4.15;;
68449;SDS011;67758;39.572;2.652;2023-04-25T09:23:18;10.98;;;3.97;;
68449;SDS011;67758;39.572;2.652;2023-04-25T09:25:50;18.75;;;4.22;;
68449;SDS011;67758;39.572;2.652;2023-04-25T09:28:19;13.52;;;4.70;;
68449;SDS011;67758;39.572;2.652;2023-04-25T09:30:49;10.85;;;4.78;;
68449;SDS011;67758;39.572;2.652;2023-04-25T09:33:15;9.57;;;4.80;;
68449;SDS011;67758;39.572;2.652;2023-04-25T09:35:41;10.20;;;4.10;;
68449;SDS011;67758;39.572;2.652;2023-04-25T09:38:12;14.90;;;4.28;;
68449;SDS011;67758;39.572;2.652;2023-04-25T09:40:42;13.20;;;3.58;;
68449;SDS011;67758;39.572;2.652;2023-04-25T09:43:09;12.45;;;4.25;;
68449;SDS011;67758;39.572;2.652;2023-04-25T09:45:42;13.00;;;5.18;;
68449;SDS011;67758;39.572;2.652;2023-04-25T09:48:21;22.03;;;4.93;;
68449;SDS011;67758;39.572;2.652;2023-04-25T09:51:06;21.35;;;4.75;;
68449;SDS011;67758;39.572;2.652;2023-04-25T09:53:36;11.98;;;4.30;;
68449;SDS011;67758;39.572;2.652;2023-04-25T09:56:04;15.38;;;4.03;;
68449;SDS011;67758;39.572;2.652;2023-04-25T09:58:32;11.15;;;3.88;;
68449;SDS011;67758;39.572;2.652;2023-04-25T10:00:59;12.50;;;3.87;;
68449;SDS011;67758;39.572;2.652;2023-04-25T10:03:26;13.52;;;4.03;;
68449;SDS011;67758;39.572;2.652;2023-04-25T10:05:54;13.75;;;4.47;;
68449;SDS011;67758;39.572;2.652;2023-04-25T10:08:21;11.35;;;3.72;;
68449;SDS011;67758;39.572;2.652;2023-04-25T10:10:48;12.13;;;4.30;;
68449;SDS011;67758;39.572;2.652;2023-04-25T10:13:15;10.73;;;3.93;;
68449;SDS011;67758;39.572;2.652;2023-04-25T10:15:41;15.40;;;4.53;;
68449;SDS011;67758;39.572;2.652;2023-04-25T10:18:07;10.90;;;4.20;;
68449;SDS011;67758;39.572;2.652;2023-04-25T10:20:33;15.82;;;5.72;;
68449;SDS011;67758;39.572;2.652;2023-04-25T10:23:11;9.13;;;4.03;;
68449;SDS011;67758;39.572;2.652;2023-04-25T10:25:39;12.10;;;4.32;;
68449;SDS011;67758;39.572;2.652;2023-04-25T10:28:05;15.73;;;4.45;;
68449;SDS011;67758;39.572;2.652;2023-04-25T10:30:31;11.13;;;4.33;;
68449;SDS011;67758;39.572;2.652;2023-04-25T10:32:56;14.50;;;3.97;;
68449;SDS011;67758;39.572;2.652;2023-04-25T10:35:24;14.13;;;4.20;;
68449;SDS011;67758;39.572;2.652;2023-04-25T10:38:03;14.07;;;4.25;;
68449;SDS011;67758;39.572;2.652;2023-04-25T10:40:31;15.90;;;4.40;;
68449;SDS011;67758;39.572;2.652;2023-04-25T10:43:33;13.73;;;4.32;;
68449;SDS011;67758;39.572;2.652;2023-04-25T10:48:56;11.45;;;4.45;;
68449;SDS011;67758;39.572;2.652;2023-04-25T10:54:02;13.77;;;4.68;;
68449;SDS011;67758;39.572;2.652;2023-04-25T11:01:42;9.88;;;3.83;;
68449;SDS011;67758;39.572;2.652;2023-04-25T11:04:43;15.15;;;5.22;;
68449;SDS011;67758;39.572;2.652;2023-04-25T11:09:43;10.57;;;4.55;;
68449;SDS011;67758;39.572;2.652;2023-04-25T11:12:10;14.55;;;5.30;;
68449;SDS011;67758;39.572;2.652;2023-04-25T11:14:37;10.63;;;4.38;;
68449;SDS011;67758;39.572;2.652;2023-04-25T11:17:03;13.82;;;4.60;;
68449;SDS011;67758;39.572;2.652;2023-04-25T11:19:29;14.87;;;5.40;;
68449;SDS011;67758;39.572;2.652;2023-04-25T11:21:55;16.75;;;5.03;;
68449;SDS011;67758;39.572;2.652;2023-04-25T11:24:34;11.60;;;4.47;;
68449;SDS011;67758;39.572;2.652;2023-04-25T11:27:01;14.40;;;4.60;;
68449;SDS011;67758;39.572;2.652;2023-04-25T11:29:32;14.47;;;5.67;;
68449;SDS011;67758;39.572;2.652;2023-04-25T11:31:59;10.18;;;5.45;;
68449;SDS011;67758;39.572;2.652;2023-04-25T11:34:26;14.35;;;5.50;;
68449;SDS011;67758;39.572;2.652;2023-04-25T11:36:52;10.00;;;4.63;;
68449;SDS011;67758;39.572;2.652;2023-04-25T11:39:18;10.95;;;4.72;;
68449;SDS011;67758;39.572;2.652;2023-04-25T11:41:44;10.93;;;4.50;;
68449;SDS011;67758;39.572;2.652;2023-04-25T11:44:11;13.70;;;5.13;;
68449;SDS011;67758;39.572;2.652;2023-04-25T11:46:37;12.27;;;5.70;;
68449;SDS011;67758;39.572;2.652;2023-04-25T11:49:02;14.13;;;5.97;;
68449;SDS011;67758;39.572;2.652;2023-04-25T11:51:30;12.57;;;5.82;;
68449;SDS011;67758;39.572;2.652;2023-04-25T11:53:56;12.20;;;5.70;;
68449;SDS011;67758;39.572;2.652;2023-04-25T11:56:22;15.60;;;5.87;;
68449;SDS011;67758;39.572;2.652;2023-04-25T11:58:54;15.97;;;7.43;;
68449;SDS011;67758;39.572;2.652;2023-04-25T12:01:34;10.10;;;5.47;;
68449;SDS011;67758;39.572;2.652;2023-04-25T12:04:13;10.43;;;5.28;;
68449;SDS011;67758;39.572;2.652;2023-04-25T12:06:47;17.65;;;5.03;;
68449;SDS011;67758;39.572;2.652;2023-04-25T12:09:18;13.50;;;4.60;;
68449;SDS011;67758;39.572;2.652;2023-04-25T12:11:55;10.73;;;4.40;;
68449;SDS011;67758;39.572;2.652;2023-04-25T12:14:23;11.50;;;6.07;;
68449;SDS011;67758;39.572;2.652;2023-04-25T12:16:57;12.50;;;5.13;;
68449;SDS011;67758;39.572;2.652;2023-04-25T12:19:24;13.32;;;5.15;;
68449;SDS011;67758;39.572;2.652;2023-04-25T12:21:51;13.77;;;5.50;;
68449;SDS011;67758;39.572;2.652;2023-04-25T12:24:18;12.38;;;6.05;;
68449;SDS011;67758;39.572;2.652;2023-04-25T12:26:59;15.50;;;5.25;;
68449;SDS011;67758;39.572;2.652;2023-04-25T12:29:31;18.42;;;6.13;;
68449;SDS011;67758;39.572;2.652;2023-04-25T12:31:57;13.07;;;5.78;;
68449;SDS011;67758;39.572;2.652;2023-04-25T12:34:23;11.50;;;5.35;;
68449;SDS011;67758;39.572;2.652;2023-04-25T12:36:50;12.60;;;5.32;;
68449;SDS011;67758;39.572;2.652;2023-04-25T12:39:23;14.73;;;5.38;;
68449;SDS011;67758;39.572;2.652;2023-04-25T12:41:50;14.65;;;5.90;;
68449;SDS011;67758;39.572;2.652;2023-04-25T12:44:19;14.70;;;5.47;;
68449;SDS011;67758;39.572;2.652;2023-04-25T12:46:46;15.50;;;5.28;;
68449;SDS011;67758;39.572;2.652;2023-04-25T12:49:12;16.50;;;5.93;;
68449;SDS011;67758;39.572;2.652;2023-04-25T12:51:38;12.05;;;4.78;;
68449;SDS011;67758;39.572;2.652;2023-04-25T12:54:05;13.60;;;5.33;;
68449;SDS011;67758;39.572;2.652;2023-04-25T12:56:34;13.23;;;4.38;;
68449;SDS011;67758;39.572;2.652;2023-04-25T12:59:00;11.65;;;5.13;;
68449;SDS011;67758;39.572;2.652;2023-04-25T13:01:27;14.35;;;5.50;;
68449;SDS011;67758;39.572;2.652;2023-04-25T13:03:52;11.43;;;5.27;;
68449;SDS011;67758;39.572;2.652;2023-04-25T13:06:19;14.05;;;5.43;;
68449;SDS011;67758;39.572;2.652;2023-04-25T13:08:45;13.53;;;5.37;;
68449;SDS011;67758;39.572;2.652;2023-04-25T13:11:11;13.45;;;6.22;;
68449;SDS011;67758;39.572;2.652;2023-04-25T13:13:37;13.30;;;5.60;;
68449;SDS011;67758;39.572;2.652;2023-04-25T13:16:04;16.13;;;5.82;;
68449;SDS011;67758;39.572;2.652;2023-04-25T13:18:31;16.48;;;5.47;;
68449;SDS011;67758;39.572;2.652;2023-04-25T13:20:57;17.97;;;6.20;;
68449;SDS011;67758;39.572;2.652;2023-04-25T13:23:24;15.70;;;4.93;;
68449;SDS011;67758;39.572;2.652;2023-04-25T13:25:51;12.85;;;5.63;;
68449;SDS011;67758;39.572;2.652;2023-04-25T13:28:17;20.35;;;5.60;;
68449;SDS011;67758;39.572;2.652;2023-04-25T13:30:42;22.30;;;6.37;;
68449;SDS011;67758;39.572;2.652;2023-04-25T13:33:08;12.60;;;4.93;;
68449;SDS011;67758;39.572;2.652;2023-04-25T13:35:34;13.13;;;4.97;;
68449;SDS011;67758;39.572;2.652;2023-04-25T13:38:02;11.50;;;4.97;;
68449;SDS011;67758;39.572;2.652;2023-04-25T13:40:28;13.35;;;4.78;;
68449;SDS011;67758;39.572;2.652;2023-04-25T13:42:54;14.68;;;4.63;;
68449;SDS011;67758;39.572;2.652;2023-04-25T13:45:20;11.13;;;4.70;;
68449;SDS011;67758;39.572;2.652;2023-04-25T13:47:47;10.85;;;4.63;;
68449;SDS011;67758;39.572;2.652;2023-04-25T13:50:19;14.30;;;5.30;;
68449;SDS011;67758;39.572;2.652;2023-04-25T13:52:45;16.08;;;4.72;;
68449;SDS011;67758;39.572;2.652;2023-04-25T13:55:11;15.80;;;4.85;;
68449;SDS011;67758;39.572;2.652;2023-04-25T13:57:37;15.03;;;4.77;;
68449;SDS011;67758;39.572;2.652;2023-04-25T14:00:03;13.80;;;4.95;;
68449;SDS011;67758;39.572;2.652;2023-04-25T14:02:37;12.75;;;4.45;;
68449;SDS011;67758;39.572;2.652;2023-04-25T14:05:04;13.27;;;4.40;;
68449;SDS011;67758;39.572;2.652;2023-04-25T14:07:30;14.43;;;3.95;;
68449;SDS011;67758;39.572;2.652;2023-04-25T14:09:56;11.63;;;4.75;;
68449;SDS011;67758;39.572;2.652;2023-04-25T14:12:22;11.73;;;3.78;;
68449;SDS011;67758;39.572;2.652;2023-04-25T14:14:48;11.33;;;4.00;;
68449;SDS011;67758;39.572;2.652;2023-04-25T14:17:14;10.07;;;3.45;;
68449;SDS011;67758;39.572;2.652;2023-04-25T14:19:40;11.57;;;3.40;;
68449;SDS011;67758;39.572;2.652;2023-04-25T14:22:08;10.98;;;3.90;;
68449;SDS011;67758;39.572;2.652;2023-04-25T14:24:34;8.40;;;3.22;;
68449;SDS011;67758;39.572;2.652;2023-04-25T14:27:00;11.70;;;3.60;;
68449;SDS011;67758;39.572;2.652;2023-04-25T14:29:26;9.60;;;3.70;;
68449;SDS011;67758;39.572;2.652;2023-04-25T14:31:51;8.65;;;3.78;;
68449;SDS011;67758;39.572;2.652;2023-04-25T14:34:18;10.43;;;3.50;;
68449;SDS011;67758;39.572;2.652;2023-04-25T14:36:44;11.38;;;3.75;;
68449;SDS011;67758;39.572;2.652;2023-04-25T14:39:09;7.10;;;3.23;;
68449;SDS011;67758;39.572;2.652;2023-04-25T14:41:35;12.63;;;4.15;;
68449;SDS011;67758;39.572;2.652;2023-04-25T14:44:00;9.82;;;3.92;;
68449;SDS011;67758;39.572;2.652;2023-04-25T14:46:26;8.10;;;4.00;;
68449;SDS011;67758;39.572;2.652;2023-04-25T14:48:52;9.25;;;3.67;;
68449;SDS011;67758;39.572;2.652;2023-04-25T14:51:18;8.87;;;3.70;;
68449;SDS011;67758;39.572;2.652;2023-04-25T14:53:43;11.93;;;4.43;;
68449;SDS011;67758;39.572;2.652;2023-04-25T14:56:09;13.93;;;4.22;;